Time;durP1;ratioP1;P1;durP2;ratioP2;P2;SDS_P1;SDS_P2;PMS_P1;PMS_P2;Temp;Humidity;BMP_temperature;BMP_pressure;BME280_temperature;BME280_humidity;BME280_pressure;Samples;Min_cycle;Max_cycle;Signal;HPM_P1;HPM_P2
2021/01/12 00:03:04;;;;;;;38.60;18.27;;;;;;;;;;5045443;28;20195;-74
2021/01/12 00:06:08;;;;;;;45.63;18.13;;;;;;;;;;5055319;28;20721;-75
2021/01/12 00:09:12;;;;;;;42.45;17.65;;;;;;;;;;5055691;28;20187;-75
2021/01/12 00:12:17;;;;;;;41.00;18.88;;;;;;;;;;5050108;28;20713;-75
2021/01/12 00:15:22;;;;;;;44.45;19.58;;;;;;;;;;5036334;28;20180;-75
2021/01/12 00:18:26;;;;;;;43.53;18.33;;;;;;;;;;5035857;28;20187;-75
2021/01/12 00:21:30;;;;;;;38.65;19.10;;;;;;;;;;5035915;28;20239;-74
2021/01/12 00:24:35;;;;;;;41.78;20.15;;;;;;;;;;5035176;28;20188;-74
2021/01/12 00:27:39;;;;;;;45.38;20.75;;;;;;;;;;5035728;28;20216;-75
2021/01/12 00:30:43;;;;;;;41.83;20.73;;;;;;;;;;5039018;28;20218;-74
2021/01/12 00:33:47;;;;;;;43.65;20.02;;;;;;;;;;5055549;28;20219;-75
2021/01/12 00:36:52;;;;;;;40.75;19.25;;;;;;;;;;5055366;28;20195;-75
2021/01/12 00:39:56;;;;;;;44.83;20.27;;;;;;;;;;5034788;28;20204;-75
2021/01/12 00:43:00;;;;;;;33.83;17.90;;;;;;;;;;5035379;28;20204;-74
2021/01/12 00:46:08;;;;;;;41.45;20.08;;;;;;;;;;5035293;28;20216;-75
2021/01/12 00:49:13;;;;;;;40.55;18.42;;;;;;;;;;5054208;28;20215;-75
2021/01/12 00:52:17;;;;;;;43.55;20.52;;;;;;;;;;5054316;28;20223;-75
2021/01/12 00:55:21;;;;;;;41.90;20.63;;;;;;;;;;5053783;28;20199;-74
2021/01/12 00:58:25;;;;;;;39.78;19.38;;;;;;;;;;5054790;28;20203;-75
2021/01/12 01:01:29;;;;;;;42.20;20.65;;;;;;;;;;5036313;28;20254;-75
2021/01/12 01:04:34;;;;;;;41.00;20.35;;;;;;;;;;5054308;28;20206;-75
2021/01/12 01:07:38;;;;;;;37.90;20.30;;;;;;;;;;5054186;28;20223;-75
2021/01/12 01:10:42;;;;;;;40.53;19.80;;;;;;;;;;5053689;28;20203;-75
2021/01/12 01:13:47;;;;;;;43.28;20.50;;;;;;;;;;5055294;28;20586;-75
2021/01/12 01:16:51;;;;;;;39.85;20.27;;;;;;;;;;5046132;28;20212;-74
2021/01/12 01:19:55;;;;;;;42.53;20.30;;;;;;;;;;5035021;28;20270;-75
2021/01/12 01:22:59;;;;;;;39.25;19.30;;;;;;;;;;5050934;28;20202;-75
2021/01/12 01:26:03;;;;;;;45.45;20.10;;;;;;;;;;5053902;28;20191;-75
2021/01/12 01:29:07;;;;;;;45.15;22.50;;;;;;;;;;5054982;28;20203;-75
2021/01/12 01:32:11;;;;;;;44.00;21.55;;;;;;;;;;5038002;28;20227;-74
2021/01/12 01:35:15;;;;;;;40.42;21.35;;;;;;;;;;5034715;28;20655;-75
2021/01/12 01:38:19;;;;;;;41.28;20.70;;;;;;;;;;5035053;28;20184;-74
2021/01/12 01:41:23;;;;;;;42.58;21.90;;;;;;;;;;5034724;28;20227;-75
2021/01/12 01:44:28;;;;;;;42.53;21.70;;;;;;;;;;5034076;28;20204;-75
2021/01/12 01:47:33;;;;;;;43.50;21.48;;;;;;;;;;5034092;28;20227;-75
2021/01/12 01:50:37;;;;;;;47.42;21.63;;;;;;;;;;5034077;28;20188;-75
2021/01/12 01:53:42;;;;;;;49.30;23.25;;;;;;;;;;5034010;28;20207;-75
2021/01/12 01:56:46;;;;;;;44.13;22.63;;;;;;;;;;5033526;28;20690;-75
2021/01/12 01:59:51;;;;;;;43.50;21.65;;;;;;;;;;5030996;28;20762;-74
2021/01/12 02:03:07;;;;;;;41.17;21.52;;;;;;;;;;5033867;28;20184;-74
2021/01/12 02:06:18;;;;;;;44.63;22.58;;;;;;;;;;5034065;28;20184;-75
2021/01/12 02:09:30;;;;;;;39.03;20.88;;;;;;;;;;5032928;28;20212;-74
2021/01/12 02:12:42;;;;;;;43.33;22.90;;;;;;;;;;5036801;28;20713;-75
2021/01/12 02:15:47;;;;;;;39.08;20.52;;;;;;;;;;5046396;28;20681;-74
2021/01/12 02:18:53;;;;;;;46.78;23.20;;;;;;;;;;5033423;28;20642;-75
2021/01/12 02:22:03;;;;;;;44.58;21.60;;;;;;;;;;5021706;28;20228;-75
2021/01/12 02:25:09;;;;;;;44.35;22.15;;;;;;;;;;5033826;28;20548;-75
2021/01/12 02:28:17;;;;;;;42.05;22.08;;;;;;;;;;5033555;28;20216;-74
2021/01/12 02:31:21;;;;;;;41.78;22.10;;;;;;;;;;5041174;28;20298;-74
2021/01/12 02:34:27;;;;;;;45.70;22.83;;;;;;;;;;5041096;28;20219;-75
2021/01/12 02:37:31;;;;;;;39.92;21.98;;;;;;;;;;5033878;28;20181;-75
2021/01/12 02:40:35;;;;;;;39.97;21.67;;;;;;;;;;5035937;28;20203;-74
2021/01/12 02:43:44;;;;;;;44.50;23.20;;;;;;;;;;5053425;28;20207;-75
2021/01/12 02:46:52;;;;;;;45.17;23.90;;;;;;;;;;5052211;28;20219;-75
2021/01/12 02:49:56;;;;;;;46.47;23.38;;;;;;;;;;5052576;28;20187;-75
2021/01/12 02:53:00;;;;;;;42.78;22.73;;;;;;;;;;5038013;28;20195;-74
2021/01/12 02:56:04;;;;;;;44.88;23.10;;;;;;;;;;5035413;28;20195;-75
2021/01/12 02:59:09;;;;;;;42.00;21.77;;;;;;;;;;5034315;28;20199;-74
2021/01/12 03:02:13;;;;;;;49.90;24.65;;;;;;;;;;5047544;28;20222;-74
2021/01/12 03:05:17;;;;;;;44.70;22.85;;;;;;;;;;5033856;28;20500;-75
2021/01/12 03:08:21;;;;;;;41.65;22.65;;;;;;;;;;5033175;28;20211;-75
2021/01/12 03:11:25;;;;;;;40.10;22.40;;;;;;;;;;5041517;28;20222;-75
2021/01/12 03:14:29;;;;;;;38.17;22.27;;;;;;;;;;5039630;28;20206;-74
2021/01/12 03:17:33;;;;;;;43.05;23.08;;;;;;;;;;5032093;28;20199;-75
2021/01/12 03:20:37;;;;;;;41.38;21.67;;;;;;;;;;5036144;28;20207;-74
2021/01/12 03:23:41;;;;;;;39.95;22.13;;;;;;;;;;5053011;28;20187;-75
2021/01/12 03:26:45;;;;;;;43.38;22.02;;;;;;;;;;5052144;28;20191;-75
2021/01/12 03:29:50;;;;;;;45.35;22.98;;;;;;;;;;5056635;28;20211;-75
2021/01/12 03:32:54;;;;;;;43.37;23.53;;;;;;;;;;5035741;28;20219;-76
2021/01/12 03:35:58;;;;;;;40.88;22.02;;;;;;;;;;5053835;28;20605;-75
2021/01/12 03:39:03;;;;;;;39.35;21.85;;;;;;;;;;5056634;28;20199;-75
2021/01/12 03:42:08;;;;;;;43.15;22.25;;;;;;;;;;5055667;28;20226;-75
2021/01/12 03:45:12;;;;;;;38.43;22.07;;;;;;;;;;5056911;28;20203;-75
2021/01/12 03:48:17;;;;;;;40.15;22.17;;;;;;;;;;5036903;28;20618;-75
2021/01/12 03:51:23;;;;;;;38.20;21.98;;;;;;;;;;5047687;28;20230;-74
2021/01/12 03:54:27;;;;;;;39.65;22.30;;;;;;;;;;5056222;28;20311;-75
2021/01/12 03:57:31;;;;;;;44.92;23.02;;;;;;;;;;5056189;28;20576;-75
2021/01/12 04:00:35;;;;;;;41.50;21.73;;;;;;;;;;5050791;28;20199;-75
2021/01/12 04:03:42;;;;;;;39.85;22.98;;;;;;;;;;5040621;28;20566;-75
2021/01/12 04:06:46;;;;;;;41.20;22.00;;;;;;;;;;5036290;28;20217;-75
2021/01/12 04:09:51;;;;;;;40.47;21.95;;;;;;;;;;5054913;28;20673;-75
2021/01/12 04:12:55;;;;;;;39.40;22.10;;;;;;;;;;5038349;28;20196;-75
2021/01/12 04:16:01;;;;;;;38.97;22.73;;;;;;;;;;5055466;28;20561;-75
2021/01/12 04:19:05;;;;;;;41.93;22.90;;;;;;;;;;5056326;28;20211;-75
2021/01/12 04:22:10;;;;;;;39.47;22.15;;;;;;;;;;5038677;28;20662;-75
2021/01/12 04:25:14;;;;;;;40.85;22.60;;;;;;;;;;5035112;28;20192;-75
2021/01/12 04:28:18;;;;;;;40.80;22.43;;;;;;;;;;5035621;28;20215;-75
2021/01/12 04:31:25;;;;;;;40.70;22.65;;;;;;;;;;5048365;28;20656;-75
2021/01/12 04:34:29;;;;;;;42.88;22.48;;;;;;;;;;5069607;23;20231;-71
2021/01/12 04:37:33;;;;;;;38.80;21.13;;;;;;;;;;5035691;28;20184;-72
2021/01/12 04:40:38;;;;;;;44.45;23.20;;;;;;;;;;5042974;28;20204;-72
2021/01/12 04:43:42;;;;;;;36.40;20.90;;;;;;;;;;5018121;28;20189;-72
2021/01/12 04:46:46;;;;;;;38.35;21.27;;;;;;;;;;5016520;28;20651;-72
2021/01/12 04:49:50;;;;;;;35.60;21.97;;;;;;;;;;5016837;28;20189;-72
2021/01/12 04:52:54;;;;;;;39.45;22.15;;;;;;;;;;5016702;28;20591;-72
2021/01/12 04:55:58;;;;;;;42.28;21.17;;;;;;;;;;5026056;28;20591;-72
2021/01/12 04:59:03;;;;;;;41.75;21.30;;;;;;;;;;5036716;28;20184;-72
2021/01/12 05:02:11;;;;;;;41.15;21.80;;;;;;;;;;5035188;28;20594;-72
2021/01/12 05:05:15;;;;;;;38.47;21.20;;;;;;;;;;5035690;28;20189;-72
2021/01/12 05:08:20;;;;;;;35.28;20.23;;;;;;;;;;5034756;28;20216;-72
2021/01/12 05:11:27;;;;;;;42.50;22.05;;;;;;;;;;5018365;28;20232;-72
2021/01/12 05:14:33;;;;;;;37.88;20.48;;;;;;;;;;5015497;28;20540;-72
2021/01/12 05:17:37;;;;;;;37.42;20.25;;;;;;;;;;5014818;28;20184;-72
2021/01/12 05:20:48;;;;;;;35.87;20.50;;;;;;;;;;5025499;28;20204;-72
2021/01/12 05:24:04;;;;;;;33.72;18.55;;;;;;;;;;5034148;28;20599;-72
2021/01/12 05:27:10;;;;;;;31.40;18.90;;;;;;;;;;5034500;28;20188;-72
2021/01/12 05:30:14;;;;;;;34.90;19.47;;;;;;;;;;5027823;28;20196;-72
2021/01/12 05:33:19;;;;;;;39.58;20.35;;;;;;;;;;5014173;28;20599;-72
2021/01/12 05:36:24;;;;;;;37.93;20.70;;;;;;;;;;5014954;28;20184;-72
2021/01/12 05:39:28;;;;;;;37.50;19.58;;;;;;;;;;5012503;28;20619;-72
2021/01/12 05:42:33;;;;;;;33.58;20.38;;;;;;;;;;5034817;28;20607;-72
2021/01/12 05:45:39;;;;;;;36.17;19.67;;;;;;;;;;5034565;28;20196;-70
2021/01/12 05:48:46;;;;;;;38.87;20.53;;;;;;;;;;5034053;28;20638;-70
2021/01/12 05:51:51;;;;;;;33.88;19.98;;;;;;;;;;5014422;28;21221;-69
2021/01/12 05:55:05;;;;;;;36.37;20.00;;;;;;;;;;5014645;28;20189;-71
2021/01/12 05:58:11;;;;;;;34.63;19.23;;;;;;;;;;5017286;28;21161;-71
2021/01/12 06:01:41;;;;;;;36.07;18.73;;;;;;;;;;5015676;28;20654;-71
2021/01/12 06:04:45;;;;;;;35.90;19.20;;;;;;;;;;5030100;28;20611;-71
2021/01/12 06:07:50;;;;;;;33.20;19.07;;;;;;;;;;5033163;28;20598;-71
2021/01/12 06:10:56;;;;;;;32.30;18.50;;;;;;;;;;5018895;28;20662;-71
2021/01/12 06:14:06;;;;;;;28.27;16.67;;;;;;;;;;5014282;28;20892;-71
2021/01/12 06:17:10;;;;;;;32.03;17.10;;;;;;;;;;5013074;28;20603;-71
2021/01/12 06:20:18;;;;;;;31.20;17.13;;;;;;;;;;5028849;28;20595;-71
2021/01/12 06:23:33;;;;;;;31.07;17.53;;;;;;;;;;5022695;28;20603;-72
2021/01/12 06:26:40;;;;;;;32.80;18.23;;;;;;;;;;5013771;28;20568;-72
2021/01/12 06:29:49;;;;;;;32.80;18.20;;;;;;;;;;5013739;28;20654;-72
2021/01/12 06:32:53;;;;;;;30.90;17.37;;;;;;;;;;5025333;28;21021;-72
2021/01/12 06:36:00;;;;;;;32.73;18.33;;;;;;;;;;5032846;28;20617;-72
2021/01/12 06:39:05;;;;;;;31.33;16.73;;;;;;;;;;5032955;28;20594;-72
2021/01/12 06:42:12;;;;;;;33.37;17.43;;;;;;;;;;5020296;28;21250;-72
2021/01/12 06:45:17;;;;;;;29.93;16.93;;;;;;;;;;5033025;28;20599;-72
2021/01/12 06:48:21;;;;;;;34.20;17.43;;;;;;;;;;5032817;28;20649;-72
2021/01/12 06:51:35;;;;;;;36.93;17.83;;;;;;;;;;5027725;28;21267;-72
2021/01/12 06:54:42;;;;;;;38.80;18.90;;;;;;;;;;5027244;28;21168;-72
2021/01/12 06:57:50;;;;;;;48.63;22.63;;;;;;;;;;5014076;28;20544;-72
2021/01/12 07:01:00;;;;;;;46.60;21.47;;;;;;;;;;5013388;28;20658;-73
2021/01/12 07:04:04;;;;;;;40.97;21.20;;;;;;;;;;5029698;28;21212;-72
2021/01/12 07:07:13;;;;;;;64.03;27.40;;;;;;;;;;5023377;28;20571;-72
2021/01/12 07:10:17;;;;;;;52.20;23.93;;;;;;;;;;5030609;28;20552;-72
2021/01/12 07:13:21;;;;;;;49.97;23.23;;;;;;;;;;5012620;28;20967;-72
2021/01/12 07:16:25;;;;;;;47.33;25.43;;;;;;;;;;5012315;28;20611;-72
2021/01/12 07:19:29;;;;;;;32.40;18.70;;;;;;;;;;5015836;28;20592;-72
2021/01/12 07:22:35;;;;;;;41.77;22.20;;;;;;;;;;5028293;28;20643;-72
2021/01/12 07:25:45;;;;;;;23.50;14.07;;;;;;;;;;5024497;28;20606;-72
2021/01/12 07:28:49;;;;;;;22.07;13.50;;;;;;;;;;5032183;28;20595;-72
2021/01/12 07:32:02;;;;;;;22.17;12.77;;;;;;;;;;5013068;28;20627;-72
2021/01/12 07:35:10;;;;;;;21.47;12.47;;;;;;;;;;5027783;28;20646;-72
2021/01/12 07:38:20;;;;;;;19.83;12.17;;;;;;;;;;5020019;28;20579;-72
2021/01/12 07:41:24;;;;;;;21.63;12.97;;;;;;;;;;5014772;28;20655;-72
2021/01/12 07:44:28;;;;;;;21.53;11.73;;;;;;;;;;5013464;28;20552;-72
2021/01/12 07:47:33;;;;;;;21.60;12.43;;;;;;;;;;5013097;28;20548;-72
2021/01/12 07:50:37;;;;;;;22.30;12.37;;;;;;;;;;5023626;28;20591;-72
2021/01/12 07:53:40;;;;;;;21.43;13.47;;;;;;;;;;5031010;28;20594;-73
2021/01/12 07:56:45;;;;;;;22.13;14.33;;;;;;;;;;5032179;28;20599;-72
2021/01/12 07:59:50;;;;;;;66.83;34.20;;;;;;;;;;5031904;28;20540;-72
2021/01/12 08:02:57;;;;;;;23.70;17.10;;;;;;;;;;5020618;28;20960;-72
2021/01/12 08:06:02;;;;;;;18.77;12.13;;;;;;;;;;5012679;28;20643;-72
2021/01/12 08:09:07;;;;;;;17.77;11.33;;;;;;;;;;5012712;28;20727;-73
2021/01/12 08:12:13;;;;;;;16.47;10.60;;;;;;;;;;5005993;28;21267;-73
2021/01/12 08:15:17;;;;;;;17.87;11.13;;;;;;;;;;5034317;28;20578;-73
2021/01/12 08:18:22;;;;;;;16.73;9.13;;;;;;;;;;5021713;28;20599;-73
2021/01/12 08:21:26;;;;;;;13.97;8.83;;;;;;;;;;5016855;28;20644;-73
2021/01/12 08:24:31;;;;;;;13.27;8.33;;;;;;;;;;5035903;28;20969;-73
2021/01/12 08:27:35;;;;;;;16.57;9.37;;;;;;;;;;5025678;28;20588;-73
2021/01/12 08:30:41;;;;;;;14.90;9.33;;;;;;;;;;5014982;28;20588;-72
2021/01/12 08:33:47;;;;;;;28.63;19.60;;;;;;;;;;5034452;28;20611;-73
2021/01/12 08:36:54;;;;;;;15.70;10.83;;;;;;;;;;5028293;28;21134;-73
2021/01/12 08:40:00;;;;;;;22.73;14.60;;;;;;;;;;5015602;28;21195;-72
2021/01/12 08:43:13;;;;;;;14.07;10.30;;;;;;;;;;5029021;28;20619;-73
2021/01/12 08:46:17;;;;;;;13.47;10.00;;;;;;;;;;5032231;28;20604;-73
2021/01/12 08:49:32;;;;;;;12.87;8.90;;;;;;;;;;5014822;28;20588;-72
2021/01/12 08:52:44;;;;;;;14.00;10.83;;;;;;;;;;5015024;28;20647;-72
2021/01/12 08:55:48;;;;;;;12.47;8.80;;;;;;;;;;5015610;28;20545;-71
2021/01/12 08:59:06;;;;;;;10.67;7.77;;;;;;;;;;5015246;28;20884;-71
2021/01/12 09:02:20;;;;;;;11.57;8.60;;;;;;;;;;5023911;28;21228;-72
2021/01/12 09:05:25;;;;;;;14.83;10.60;;;;;;;;;;5023168;28;20596;-72
2021/01/12 09:08:29;;;;;;;12.73;8.17;;;;;;;;;;5027397;28;20576;-72
2021/01/12 09:11:46;;;;;;;13.90;6.87;;;;;;;;;;5032042;28;20631;-72
2021/01/12 09:14:50;;;;;;;13.43;7.63;;;;;;;;;;5032545;28;20619;-72
2021/01/12 09:18:25;;;;;;;54.40;26.87;;;;;;;;;;5015240;28;20541;-73
2021/01/12 09:21:29;;;;;;;15.67;9.20;;;;;;;;;;5032751;28;20770;-72
2021/01/12 09:24:33;;;;;;;11.90;7.77;;;;;;;;;;5014952;28;21110;-72
2021/01/12 09:27:37;;;;;;;11.87;6.80;;;;;;;;;;5013942;28;20608;-72
2021/01/12 09:30:44;;;;;;;13.77;7.83;;;;;;;;;;5014947;28;20608;-74
2021/01/12 09:33:49;;;;;;;14.83;8.77;;;;;;;;;;5042284;28;20591;-71
2021/01/12 09:36:54;;;;;;;14.23;8.70;;;;;;;;;;5033828;28;20544;-71
2021/01/12 09:40:02;;;;;;;14.37;8.47;;;;;;;;;;5034400;28;20556;-71
2021/01/12 09:43:06;;;;;;;12.73;8.17;;;;;;;;;;5034743;28;20548;-71
2021/01/12 09:46:11;;;;;;;12.93;8.53;;;;;;;;;;5034199;28;20595;-71
2021/01/12 09:49:15;;;;;;;11.90;8.73;;;;;;;;;;5034570;28;21146;-71
2021/01/12 09:52:19;;;;;;;14.60;9.30;;;;;;;;;;5014455;28;20632;-71
2021/01/12 09:55:25;;;;;;;84.33;44.70;;;;;;;;;;5013714;28;20561;-71
2021/01/12 09:58:29;;;;;;;11.60;8.00;;;;;;;;;;5014208;28;21112;-72
2021/01/12 10:01:33;;;;;;;11.90;8.40;;;;;;;;;;5014778;28;20628;-72
2021/01/12 10:04:37;;;;;;;15.13;10.70;;;;;;;;;;5002346;28;20549;-72
2021/01/12 10:07:42;;;;;;;15.83;9.67;;;;;;;;;;5014398;28;20541;-72
2021/01/12 10:10:46;;;;;;;14.13;9.67;;;;;;;;;;5014340;28;20648;-72
2021/01/12 10:13:50;;;;;;;16.00;9.70;;;;;;;;;;5014610;28;20541;-73
2021/01/12 10:16:55;;;;;;;20.27;13.47;;;;;;;;;;5002236;28;20892;-73
2021/01/12 10:19:59;;;;;;;14.17;9.87;;;;;;;;;;5014190;28;20907;-73
2021/01/12 10:23:03;;;;;;;14.77;10.03;;;;;;;;;;5024805;28;20556;-73
2021/01/12 10:26:15;;;;;;;13.30;8.33;;;;;;;;;;5013843;28;20652;-74
2021/01/12 10:29:20;;;;;;;12.20;7.57;;;;;;;;;;5014308;28;20920;-73
2021/01/12 10:32:25;;;;;;;10.63;7.80;;;;;;;;;;5013505;28;20636;-73
2021/01/12 10:35:29;;;;;;;11.83;7.73;;;;;;;;;;5072007;23;21025;-74
2021/01/12 10:38:33;;;;;;;12.10;7.93;;;;;;;;;;5064256;28;20574;-74
2021/01/12 10:41:39;;;;;;;11.73;7.03;;;;;;;;;;5072333;28;20625;-74
2021/01/12 10:44:43;;;;;;;14.63;7.07;;;;;;;;;;5072479;28;20542;-75
2021/01/12 10:47:48;;;;;;;13.27;8.40;;;;;;;;;;5073323;28;20539;-75
2021/01/12 10:50:52;;;;;;;10.53;7.00;;;;;;;;;;5068518;28;20661;-75
2021/01/12 10:53:56;;;;;;;8.57;5.90;;;;;;;;;;5051478;28;20586;-74
2021/01/12 10:57:00;;;;;;;10.50;7.00;;;;;;;;;;5053069;28;20597;-75
2021/01/12 11:00:06;;;;;;;8.03;5.77;;;;;;;;;;5040522;28;20599;-75
2021/01/12 11:03:10;;;;;;;8.43;6.17;;;;;;;;;;5052248;28;21140;-75
2021/01/12 11:06:17;;;;;;;10.17;6.67;;;;;;;;;;5052209;28;20539;-75
2021/01/12 11:09:22;;;;;;;40.10;24.20;;;;;;;;;;5052600;28;20547;-75
2021/01/12 11:12:26;;;;;;;15.90;9.77;;;;;;;;;;5040673;28;21212;-75
2021/01/12 11:15:30;;;;;;;11.10;8.10;;;;;;;;;;5052854;28;20555;-75
2021/01/12 11:18:34;;;;;;;8.73;6.53;;;;;;;;;;5052099;28;20594;-74
2021/01/12 11:21:43;;;;;;;12.43;8.33;;;;;;;;;;5065522;28;21207;-74
2021/01/12 11:24:47;;;;;;;15.10;8.90;;;;;;;;;;5052652;28;20547;-73
2021/01/12 11:27:52;;;;;;;14.47;8.77;;;;;;;;;;5060311;28;20593;-73
2021/01/12 11:30:56;;;;;;;30.23;14.03;;;;;;;;;;5065328;28;20666;-72
2021/01/12 11:34:00;;;;;;;12.07;7.73;;;;;;;;;;5052802;28;20538;-73
2021/01/12 11:37:08;;;;;;;7.70;6.10;;;;;;;;;;5071275;28;20933;-73
2021/01/12 11:40:13;;;;;;;10.00;6.67;;;;;;;;;;5071436;28;20543;-73
2021/01/12 11:43:18;;;;;;;7.90;6.10;;;;;;;;;;5052107;28;20543;-73
2021/01/12 11:46:29;;;;;;;11.10;6.67;;;;;;;;;;5051654;28;20598;-73
2021/01/12 11:49:34;;;;;;;7.30;5.10;;;;;;;;;;5053319;28;20595;-73
2021/01/12 11:52:39;;;;;;;7.07;5.27;;;;;;;;;;5056122;28;20606;-72
2021/01/12 11:55:43;;;;;;;7.57;5.10;;;;;;;;;;5059515;28;20582;-73
2021/01/12 11:58:50;;;;;;;8.03;5.13;;;;;;;;;;5074811;28;20582;-72
2021/01/12 12:01:55;;;;;;;7.10;4.80;;;;;;;;;;5076020;28;20617;-72
2021/01/12 12:05:00;;;;;;;7.20;5.30;;;;;;;;;;5060041;28;20595;-72
2021/01/12 12:08:05;;;;;;;10.60;7.00;;;;;;;;;;5044274;28;20547;-72
2021/01/12 12:11:10;;;;;;;7.00;5.13;;;;;;;;;;5072507;28;21036;-72
2021/01/12 12:14:14;;;;;;;6.40;4.60;;;;;;;;;;5076143;28;20546;-72
2021/01/12 12:17:19;;;;;;;7.90;4.83;;;;;;;;;;5055392;28;20543;-70
2021/01/12 12:20:23;;;;;;;8.03;5.80;;;;;;;;;;5064380;28;20606;-70
2021/01/12 12:23:27;;;;;;;7.67;5.23;;;;;;;;;;5070190;28;20586;-72
2021/01/12 12:26:31;;;;;;;7.47;5.10;;;;;;;;;;5075203;28;20596;-72
2021/01/12 12:29:36;;;;;;;7.87;5.20;;;;;;;;;;5063714;28;20614;-72
2021/01/12 12:32:40;;;;;;;7.30;5.43;;;;;;;;;;5056376;28;20989;-73
2021/01/12 12:35:44;;;;;;;10.63;6.60;;;;;;;;;;5054734;28;20609;-72
2021/01/12 12:38:48;;;;;;;9.50;5.30;;;;;;;;;;5055055;28;20551;-72
2021/01/12 12:41:52;;;;;;;10.80;5.30;;;;;;;;;;5055718;28;20646;-72
2021/01/12 12:44:57;;;;;;;11.47;6.63;;;;;;;;;;5055865;28;20543;-72
2021/01/12 12:48:03;;;;;;;8.60;6.37;;;;;;;;;;5055886;28;20871;-72
2021/01/12 12:51:10;;;;;;;8.40;5.43;;;;;;;;;;5057359;28;21021;-73
2021/01/12 12:54:14;;;;;;;6.27;4.33;;;;;;;;;;5075447;28;20593;-72
2021/01/12 12:57:18;;;;;;;11.73;6.93;;;;;;;;;;5075196;28;20589;-73
2021/01/12 13:00:23;;;;;;;8.80;5.20;;;;;;;;;;5043699;28;20582;-74
2021/01/12 13:03:28;;;;;;;9.90;5.60;;;;;;;;;;5055223;28;20531;-73
2021/01/12 13:06:32;;;;;;;22.80;12.27;;;;;;;;;;5054613;28;20547;-72
2021/01/12 13:09:37;;;;;;;7.90;6.10;;;;;;;;;;5054539;28;20551;-72
2021/01/12 13:12:42;;;;;;;7.93;5.60;;;;;;;;;;5059068;28;20633;-74
2021/01/12 13:15:47;;;;;;;7.37;4.93;;;;;;;;;;5054987;28;20559;-73
2021/01/12 13:18:57;;;;;;;5.73;4.70;;;;;;;;;;5040154;28;20631;-73
2021/01/12 13:22:01;;;;;;;5.90;4.80;;;;;;;;;;5039686;28;20643;-73
2021/01/12 13:25:07;;;;;;;5.80;4.53;;;;;;;;;;5022279;28;20886;-73
2021/01/12 13:28:12;;;;;;;13.67;7.43;;;;;;;;;;5027391;28;20591;-73
2021/01/12 13:31:16;;;;;;;20.97;13.37;;;;;;;;;;5031194;28;20658;-74
2021/01/12 13:34:20;;;;;;;8.67;7.13;;;;;;;;;;5034376;28;20607;-74
2021/01/12 13:37:24;;;;;;;36.77;24.37;;;;;;;;;;5014618;28;20585;-74
2021/01/12 13:40:29;;;;;;;32.40;20.00;;;;;;;;;;5026285;28;20584;-76
2021/01/12 13:43:33;;;;;;;19.23;12.00;;;;;;;;;;5034496;28;20906;-71
2021/01/12 13:46:41;;;;;;;21.90;13.73;;;;;;;;;;5014429;28;20580;-72
2021/01/12 13:49:45;;;;;;;13.47;10.07;;;;;;;;;;5014624;28;21129;-71
2021/01/12 13:52:50;;;;;;;9.83;8.43;;;;;;;;;;5002129;28;20600;-71
2021/01/12 13:55:55;;;;;;;7.00;5.47;;;;;;;;;;5040982;28;20592;-71
2021/01/12 13:59:01;;;;;;;5.97;4.60;;;;;;;;;;5032388;28;20595;-72
2021/01/12 14:02:09;;;;;;;5.23;3.73;;;;;;;;;;5033744;28;20986;-71
2021/01/12 14:05:13;;;;;;;5.13;3.77;;;;;;;;;;5034342;28;20899;-71
2021/01/12 14:08:18;;;;;;;6.97;5.50;;;;;;;;;;5015789;28;20589;-71
2021/01/12 14:11:22;;;;;;;6.27;4.53;;;;;;;;;;5013754;28;20659;-71
2021/01/12 14:14:27;;;;;;;33.23;21.10;;;;;;;;;;5013055;28;20929;-71
2021/01/12 14:17:33;;;;;;;10.47;8.00;;;;;;;;;;5017214;28;20587;-72
2021/01/12 14:20:37;;;;;;;13.67;10.80;;;;;;;;;;5022717;28;21164;-71
2021/01/12 14:23:47;;;;;;;7.63;6.40;;;;;;;;;;5025600;28;20600;-72
2021/01/12 14:26:53;;;;;;;9.63;8.43;;;;;;;;;;5033248;28;20623;-72
2021/01/12 14:29:59;;;;;;;5.73;4.40;;;;;;;;;;5013823;28;20604;-72
2021/01/12 14:33:03;;;;;;;4.43;3.43;;;;;;;;;;5014853;28;21146;-72
2021/01/12 14:36:08;;;;;;;6.33;4.90;;;;;;;;;;5013556;28;20620;-73
2021/01/12 14:39:31;;;;;;;4.50;3.30;;;;;;;;;;5012805;28;20596;-72
2021/01/12 14:42:36;;;;;;;5.00;3.40;;;;;;;;;;5031266;28;20983;-72
2021/01/12 14:45:42;;;;;;;5.93;4.20;;;;;;;;;;5032356;28;20595;-73
2021/01/12 14:48:47;;;;;;;8.87;5.30;;;;;;;;;;5020780;28;20961;-75
2021/01/12 14:51:51;;;;;;;9.00;5.17;;;;;;;;;;5025722;28;21252;-75
2021/01/12 14:54:55;;;;;;;7.00;3.83;;;;;;;;;;5012670;28;20936;-71
2021/01/12 14:58:00;;;;;;;8.40;5.50;;;;;;;;;;5013757;28;21142;-71
2021/01/12 15:01:04;;;;;;;7.30;5.43;;;;;;;;;;5029209;28;21216;-70
2021/01/12 15:04:20;;;;;;;8.30;6.00;;;;;;;;;;5032942;28;20852;-70
2021/01/12 15:07:24;;;;;;;3.67;2.87;;;;;;;;;;5019316;28;20592;-70
2021/01/12 15:10:28;;;;;;;5.00;4.27;;;;;;;;;;5013427;28;20560;-70
2021/01/12 15:13:32;;;;;;;5.43;4.93;;;;;;;;;;5033378;28;20535;-70
2021/01/12 15:16:36;;;;;;;6.33;5.30;;;;;;;;;;5029508;28;20638;-71
2021/01/12 15:19:40;;;;;;;4.27;3.70;;;;;;;;;;5055796;28;20590;-73
2021/01/12 15:22:44;;;;;;;2.53;2.13;;;;;;;;;;5053036;28;20614;-73
2021/01/12 15:25:48;;;;;;;3.07;2.47;;;;;;;;;;5056746;28;20602;-73
2021/01/12 15:28:53;;;;;;;3.97;2.00;;;;;;;;;;5073609;28;20626;-73
2021/01/12 15:31:58;;;;;;;3.00;2.23;;;;;;;;;;5075032;28;20653;-73
2021/01/12 15:35:03;;;;;;;4.23;3.73;;;;;;;;;;5056528;28;20602;-72
2021/01/12 15:38:07;;;;;;;3.27;2.97;;;;;;;;;;5056469;28;20591;-71
2021/01/12 15:41:12;;;;;;;3.30;2.40;;;;;;;;;;5056330;28;20621;-71
2021/01/12 15:44:16;;;;;;;4.30;2.50;;;;;;;;;;5055815;28;21143;-71
2021/01/12 15:47:21;;;;;;;3.10;2.40;;;;;;;;;;5056346;28;20550;-71
2021/01/12 15:50:25;;;;;;;3.53;2.50;;;;;;;;;;5059320;28;20590;-71
2021/01/12 15:53:29;;;;;;;3.67;3.20;;;;;;;;;;5056654;28;21162;-70
2021/01/12 15:56:33;;;;;;;6.00;4.70;;;;;;;;;;5056166;28;21093;-71
2021/01/12 15:59:38;;;;;;;5.97;4.50;;;;;;;;;;5056163;28;21073;-71
2021/01/12 16:02:44;;;;;;;4.03;3.40;;;;;;;;;;5055490;28;20610;-71
2021/01/12 16:05:49;;;;;;;2.67;2.37;;;;;;;;;;5056172;28;20586;-70
2021/01/12 16:08:54;;;;;;;7.03;4.43;;;;;;;;;;5067334;28;20617;-71
2021/01/12 16:12:02;;;;;;;21.47;12.23;;;;;;;;;;5076060;28;20645;-70
2021/01/12 16:15:07;;;;;;;42.03;16.17;;;;;;;;;;5054649;28;20938;-70
2021/01/12 16:18:12;;;;;;;9.93;4.90;;;;;;;;;;5032177;28;20597;-70
2021/01/12 16:21:17;;;;;;;34.03;13.73;;;;;;;;;;5069654;28;20644;-71
2021/01/12 16:24:22;;;;;;;4.83;3.67;;;;;;;;;;5064321;28;21219;-70
2021/01/12 16:27:26;;;;;;;3.73;2.83;;;;;;;;;;5043983;28;20550;-71
2021/01/12 16:30:31;;;;;;;4.90;3.30;;;;;;;;;;5055742;28;20887;-72
2021/01/12 16:33:38;;;;;;;5.70;4.20;;;;;;;;;;5056084;28;20575;-72
2021/01/12 16:36:49;;;;;;;4.07;3.07;;;;;;;;;;5053929;28;21081;-72
2021/01/12 16:39:54;;;;;;;4.57;3.63;;;;;;;;;;5054987;28;20590;-72
2021/01/12 16:43:05;;;;;;;3.60;3.10;;;;;;;;;;5054876;28;21065;-72
2021/01/12 16:46:11;;;;;;;3.30;2.90;;;;;;;;;;5043653;28;20551;-73
2021/01/12 16:49:34;;;;;;;6.00;3.70;;;;;;;;;;5055726;28;20945;-73
2021/01/12 16:52:48;;;;;;;5.53;3.30;;;;;;;;;;5057392;28;20653;-74
2021/01/12 16:56:01;;;;;;;6.83;4.80;;;;;;;;;;5042767;28;21152;-73
2021/01/12 16:59:12;;;;;;;8.97;6.90;;;;;;;;;;5054762;28;20531;-72
2021/01/12 17:02:35;;;;;;;11.07;7.60;;;;;;;;;;5054026;28;20954;-72
2021/01/12 17:05:42;;;;;;;15.90;10.10;;;;;;;;;;5054346;28;20594;-71
2021/01/12 17:08:57;;;;;;;9.80;7.80;;;;;;;;;;5054273;28;20595;-72
2021/01/12 17:12:09;;;;;;;4.00;3.13;;;;;;;;;;5055260;28;20654;-72
2021/01/12 17:15:16;;;;;;;8.83;5.60;;;;;;;;;;5059106;28;21183;-73
2021/01/12 17:18:20;;;;;;;6.57;4.00;;;;;;;;;;5054891;28;20571;-75
2021/01/12 17:22:07;;;;;;;4.63;3.50;;;;;;;;;;5072894;28;20633;-74
2021/01/12 17:25:24;;;;;;;3.40;3.00;;;;;;;;;;4983353;28;20610;-74
2021/01/12 17:28:34;;;;;;;4.03;3.23;;;;;;;;;;5062837;28;20578;-75
2021/01/12 17:31:42;;;;;;;4.93;3.47;;;;;;;;;;5054662;28;20646;-74
2021/01/12 17:34:52;;;;;;;4.90;3.47;;;;;;;;;;5080147;28;20613;-77
2021/01/12 17:38:02;;;;;;;5.10;3.70;;;;;;;;;;5081098;28;20594;-75
2021/01/12 17:41:20;;;;;;;4.23;3.07;;;;;;;;;;5064190;28;20650;-75
2021/01/12 17:44:32;;;;;;;3.63;2.90;;;;;;;;;;5053655;28;20582;-73
2021/01/12 17:47:47;;;;;;;5.17;3.47;;;;;;;;;;5041570;28;20595;-74
2021/01/12 17:50:51;;;;;;;5.67;4.33;;;;;;;;;;5053353;28;20622;-73
2021/01/12 17:54:01;;;;;;;3.63;3.20;;;;;;;;;;5055865;28;20571;-74
2021/01/12 17:57:28;;;;;;;5.20;3.70;;;;;;;;;;5072995;28;20590;-73
2021/01/12 18:00:35;;;;;;;5.93;4.33;;;;;;;;;;5061579;28;21092;-73
2021/01/12 18:03:48;;;;;;;5.40;3.97;;;;;;;;;;5053261;28;21077;-73
2021/01/12 18:07:02;;;;;;;6.13;5.23;;;;;;;;;;5056792;28;20621;-74
2021/01/12 18:10:16;;;;;;;8.47;6.93;;;;;;;;;;5053174;28;20949;-74
2021/01/12 18:13:26;;;;;;;5.33;4.47;;;;;;;;;;5053117;28;20599;-73
2021/01/12 18:16:32;;;;;;;4.67;3.70;;;;;;;;;;5056315;28;21128;-72